createdAt,value
2019-01-04T00:00:41.759Z,23.50
2019-01-04T00:03:11.179Z,29.43
2019-01-04T00:05:40.648Z,29.77
2019-01-04T00:08:10.461Z,25.73
2019-01-04T00:10:40.151Z,26.60
2019-01-04T00:13:09.768Z,27.90
2019-01-04T00:15:39.183Z,26.83
2019-01-04T00:18:09.026Z,20.60
2019-01-04T00:20:38.800Z,23.70
2019-01-04T00:23:08.798Z,30.67
2019-01-04T00:25:38.244Z,34.23
2019-01-04T00:28:14.603Z,29.27
2019-01-04T00:30:44.299Z,25.90
2019-01-04T00:33:13.914Z,26.43
2019-01-04T00:35:43.615Z,24.03
2019-01-04T00:38:13.284Z,21.63
2019-01-04T00:40:42.989Z,28.80
2019-01-04T00:43:12.854Z,23.43
2019-01-04T00:45:42.469Z,26.30
2019-01-04T00:48:12.215Z,23.97
2019-01-04T00:50:42.087Z,26.53
2019-01-04T00:53:11.861Z,23.53
2019-01-04T00:56:14.583Z,22.80
2019-01-04T00:59:01.576Z,21.93
2019-01-04T01:01:40.448Z,20.67
2019-01-04T01:04:19.159Z,25.10
2019-01-04T01:07:08.567Z,20.73
2019-01-04T01:10:11.293Z,21.23
2019-01-04T01:13:02.979Z,22.57
2019-01-04T01:16:00.760Z,20.20
2019-01-04T01:18:49.385Z,19.80
2019-01-04T01:21:27.473Z,25.60
2019-01-04T01:24:31.745Z,24.67
2019-01-04T01:27:29.814Z,22.07
2019-01-04T01:30:33.626Z,23.47
2019-01-04T01:33:23.723Z,25.50
2019-01-04T01:35:58.942Z,22.47
2019-01-04T01:38:31.470Z,20.20
2019-01-04T01:41:27.669Z,26.80
2019-01-04T01:44:16.638Z,24.63
2019-01-04T01:46:57.599Z,26.50
2019-01-04T01:49:38.645Z,26.73
2019-01-04T01:52:14.903Z,20.53
2019-01-04T01:54:44.364Z,30.17
2019-01-04T01:57:14.376Z,22.03
2019-01-04T01:59:44.223Z,31.27
2019-01-04T02:02:13.707Z,30.70
2019-01-04T02:04:43.270Z,28.10
2019-01-04T02:07:13.088Z,24.77
2019-01-04T02:09:42.263Z,26.33
2019-01-04T02:12:11.938Z,34.63
2019-01-04T02:14:41.713Z,28.50
2019-01-04T02:17:11.216Z,27.93
2019-01-04T02:19:40.821Z,26.50
2019-01-04T02:22:10.652Z,26.40
2019-01-04T02:24:39.878Z,29.77
2019-01-04T02:27:09.636Z,29.43
2019-01-04T02:29:39.044Z,29.53
2019-01-04T02:32:08.353Z,30.77
2019-01-04T02:34:37.659Z,27.43
2019-01-04T02:37:07.356Z,28.33
2019-01-04T02:39:37.180Z,25.67
2019-01-04T02:42:06.979Z,28.43
2019-01-04T02:44:36.649Z,25.80
2019-01-04T02:47:06.301Z,29.67
2019-01-04T02:49:35.987Z,25.47
2019-01-04T02:52:05.817Z,24.50
2019-01-04T02:54:35.421Z,23.13
2019-01-04T02:57:05.061Z,30.90
2019-01-04T02:59:34.783Z,26.43
2019-01-04T03:02:05.631Z,26.60
2019-01-04T03:04:35.252Z,27.67
2019-01-04T03:07:04.753Z,31.17
2019-01-04T03:09:34.301Z,27.27
2019-01-04T03:12:03.674Z,31.77
2019-01-04T03:14:33.107Z,30.57
2019-01-04T03:17:02.350Z,28.03
2019-01-04T03:19:32.018Z,26.67
2019-01-04T03:22:01.887Z,30.57
2019-01-04T03:24:31.223Z,37.43
2019-01-04T03:27:00.815Z,29.20
2019-01-04T03:29:30.255Z,29.23
2019-01-04T03:31:59.932Z,41.90
2019-01-04T03:34:29.464Z,34.17
2019-01-04T03:36:59.150Z,60.63
2019-01-04T03:39:28.458Z,58.70
2019-01-04T03:41:57.690Z,48.53
2019-01-04T03:44:27.439Z,49.47
2019-01-04T03:46:57.062Z,47.87
2019-01-04T03:49:26.786Z,65.60
2019-01-04T03:51:56.161Z,49.40
2019-01-04T03:54:25.821Z,44.37
2019-01-04T03:56:55.389Z,41.27
2019-01-04T03:59:25.204Z,47.20
2019-01-04T04:01:55.017Z,59.10
2019-01-04T04:04:24.499Z,39.30
2019-01-04T04:06:54.367Z,44.20
2019-01-04T04:09:23.956Z,45.00
2019-01-04T04:11:53.887Z,42.37
2019-01-04T04:14:23.604Z,42.60
2019-01-04T04:16:53.387Z,42.77
2019-01-04T04:19:23.069Z,43.13
2019-01-04T04:21:52.742Z,43.60
2019-01-04T04:24:22.415Z,41.83
2019-01-04T04:26:52.016Z,38.40
2019-01-04T04:29:21.913Z,38.30
2019-01-04T04:31:51.454Z,34.30
2019-01-04T04:34:21.164Z,47.20
2019-01-04T04:36:50.794Z,30.63
2019-01-04T04:39:20.445Z,30.30
2019-01-04T04:41:49.755Z,39.33
2019-01-04T04:44:19.592Z,44.53
2019-01-04T04:46:48.983Z,34.03
2019-01-04T04:49:18.915Z,38.80
2019-01-04T04:52:03.109Z,40.20
2019-01-04T04:54:32.369Z,36.50
2019-01-04T04:57:02.184Z,41.13
2019-01-04T04:59:31.775Z,37.10
2019-01-04T05:02:01.046Z,33.13
2019-01-04T05:04:31.057Z,47.13
2019-01-04T05:07:00.766Z,32.33
2019-01-04T05:09:30.514Z,41.27
2019-01-04T05:11:59.941Z,36.37
2019-01-04T05:14:29.508Z,39.20
2019-01-04T05:16:58.945Z,36.73
2019-01-04T05:19:28.342Z,32.27
2019-01-04T05:21:57.455Z,39.97
2019-01-04T05:24:26.446Z,42.33
2019-01-04T05:26:56.208Z,32.13
2019-01-04T05:29:25.977Z,32.67
2019-01-04T05:31:55.020Z,40.10
2019-01-04T05:34:25.240Z,39.00
2019-01-04T05:36:54.301Z,42.40
2019-01-04T05:39:24.266Z,25.53
2019-01-04T05:41:54.312Z,33.23
2019-01-04T05:44:23.580Z,32.63
2019-01-04T05:46:53.158Z,36.23
2019-01-04T05:49:23.934Z,38.50
2019-01-04T05:51:53.590Z,34.83
2019-01-04T05:54:23.222Z,30.80
2019-01-04T05:56:53.145Z,36.50
2019-01-04T05:59:22.749Z,31.10
2019-01-04T06:01:52.049Z,37.63
2019-01-04T06:04:21.537Z,31.87
2019-01-04T06:06:51.369Z,34.57
2019-01-04T06:09:21.148Z,31.43
2019-01-04T06:11:50.919Z,43.47
2019-01-04T06:14:20.578Z,32.80
2019-01-04T06:16:49.915Z,29.27
2019-01-04T06:19:19.722Z,35.93
2019-01-04T06:21:49.476Z,45.43
2019-01-04T06:24:19.055Z,35.37
2019-01-04T06:26:48.958Z,34.87
2019-01-04T06:29:18.748Z,32.77
2019-01-04T06:31:48.473Z,28.47
2019-01-04T06:34:18.346Z,31.77
2019-01-04T06:36:48.168Z,33.50
2019-01-04T06:39:17.382Z,35.67
2019-01-04T06:41:47.216Z,39.67
2019-01-04T06:44:16.824Z,35.00
2019-01-04T06:47:12.099Z,35.17
2019-01-04T06:49:41.775Z,31.83
2019-01-04T06:52:11.344Z,37.47
2019-01-04T06:55:18.546Z,41.20
2019-01-04T06:57:47.940Z,26.33
2019-01-04T07:00:17.739Z,27.73
2019-01-04T07:02:47.239Z,35.00
2019-01-04T07:05:16.990Z,26.40
2019-01-04T07:07:46.892Z,33.77
2019-01-04T07:10:16.594Z,24.87
2019-01-04T07:12:46.431Z,31.97
2019-01-04T07:15:16.233Z,30.67
2019-01-04T07:17:47.240Z,31.50
2019-01-04T07:20:16.694Z,28.80
2019-01-04T07:22:46.190Z,29.83
2019-01-04T07:25:16.012Z,28.07
2019-01-04T07:27:45.689Z,30.40
2019-01-04T07:30:15.131Z,37.40
2019-01-04T07:32:44.858Z,28.50
2019-01-04T07:35:14.650Z,32.33
2019-01-04T07:37:44.339Z,32.93
2019-01-04T07:40:14.234Z,31.20
2019-01-04T07:42:44.065Z,27.57
2019-01-04T07:45:13.780Z,24.83
2019-01-04T07:47:43.682Z,35.70
2019-01-04T07:50:13.660Z,28.33
2019-01-04T07:52:43.302Z,30.10
2019-01-04T07:55:13.223Z,31.30
2019-01-04T07:57:57.179Z,30.13
2019-01-04T08:00:27.223Z,24.10
2019-01-04T08:02:57.048Z,31.77
2019-01-04T08:05:26.756Z,24.90
2019-01-04T08:07:56.623Z,29.87
2019-01-04T08:10:26.754Z,27.63
2019-01-04T08:13:00.915Z,25.20
2019-01-04T08:15:30.637Z,24.87
2019-01-04T08:18:00.473Z,23.03
2019-01-04T08:20:30.417Z,26.97
2019-01-04T08:23:00.198Z,29.83
2019-01-04T08:25:30.015Z,25.93
2019-01-04T08:28:00.008Z,28.80
2019-01-04T08:30:29.793Z,24.37
2019-01-04T08:32:59.472Z,27.03
2019-01-04T08:35:29.391Z,29.30
2019-01-04T08:37:59.153Z,24.17
2019-01-04T08:40:28.729Z,24.90
2019-01-04T08:42:58.598Z,28.90
2019-01-04T08:45:28.133Z,23.27
2019-01-04T08:47:57.915Z,32.17
2019-01-04T08:50:27.539Z,20.20
2019-01-04T08:52:57.161Z,20.50
2019-01-04T08:55:27.055Z,25.97
2019-01-04T08:57:56.130Z,24.33
2019-01-04T09:00:25.916Z,21.00
2019-01-04T09:02:55.696Z,25.33
2019-01-04T09:05:25.437Z,25.13
2019-01-04T09:07:55.242Z,19.00
2019-01-04T09:10:25.016Z,22.43
2019-01-04T09:12:55.031Z,24.53
2019-01-04T09:15:24.908Z,18.83
2019-01-04T09:17:54.563Z,22.90
2019-01-04T09:20:24.388Z,22.93
2019-01-04T09:22:54.081Z,17.27
2019-01-04T09:25:23.718Z,27.90
2019-01-04T09:27:53.588Z,18.40
2019-01-04T09:30:23.186Z,26.33
2019-01-04T09:32:52.863Z,22.90
2019-01-04T09:35:22.549Z,19.53
2019-01-04T09:37:52.067Z,18.50
2019-01-04T09:40:21.809Z,20.87
2019-01-04T09:42:51.529Z,20.67
2019-01-04T09:45:21.925Z,13.60
2019-01-04T09:47:51.792Z,20.47
2019-01-04T09:50:21.486Z,15.00
2019-01-04T09:52:51.170Z,14.10
2019-01-04T09:55:20.518Z,18.03
2019-01-04T09:57:50.239Z,12.60
2019-01-04T10:00:20.044Z,18.67
2019-01-04T10:02:49.676Z,10.57
2019-01-04T10:05:19.447Z,15.40
2019-01-04T10:07:48.974Z,13.83
2019-01-04T10:10:18.467Z,19.53
2019-01-04T10:12:47.861Z,13.73
2019-01-04T10:15:17.853Z,13.70
2019-01-04T10:17:47.175Z,9.43
2019-01-04T10:20:16.626Z,9.80
2019-01-04T10:22:46.220Z,11.87
2019-01-04T10:25:15.929Z,8.50
2019-01-04T10:27:45.629Z,14.13
2019-01-04T10:30:20.728Z,9.57
2019-01-04T10:32:50.452Z,17.80
2019-01-04T10:35:20.226Z,11.77
2019-01-04T10:37:49.916Z,15.50
2019-01-04T10:40:19.542Z,13.40
2019-01-04T10:42:49.255Z,16.87
2019-01-04T10:45:19.066Z,27.33
2019-01-04T10:47:48.918Z,14.50
2019-01-04T10:50:18.480Z,22.97
2019-01-04T10:52:48.258Z,10.60
2019-01-04T10:55:18.094Z,8.87
2019-01-04T10:57:47.588Z,15.07
2019-01-04T11:00:17.327Z,9.90
2019-01-04T11:02:47.031Z,13.57
2019-01-04T11:05:16.731Z,11.33
2019-01-04T11:07:46.447Z,10.10
2019-01-04T11:10:22.523Z,10.80
2019-01-04T11:12:52.341Z,9.30
2019-01-04T11:15:22.479Z,12.30
2019-01-04T11:17:52.119Z,11.70
2019-01-04T11:20:41.359Z,11.77
2019-01-04T11:23:30.537Z,11.60
2019-01-04T11:26:11.790Z,7.27
2019-01-04T11:28:50.498Z,13.60
2019-01-04T11:31:47.372Z,13.00
2019-01-04T11:34:27.016Z,10.47
2019-01-04T11:37:20.506Z,14.37
2019-01-04T11:39:58.755Z,12.13
2019-01-04T11:43:01.455Z,9.80
2019-01-04T11:45:33.909Z,24.30
2019-01-04T11:48:21.512Z,14.57
2019-01-04T11:51:12.645Z,17.20
2019-01-04T11:53:42.510Z,16.30
2019-01-04T11:56:12.570Z,10.33
2019-01-04T11:58:42.334Z,9.73
2019-01-04T12:01:12.176Z,15.47
2019-01-04T12:03:41.890Z,17.93
2019-01-04T12:06:11.563Z,14.73
2019-01-04T12:08:41.316Z,8.10
2019-01-04T12:11:10.760Z,9.40
2019-01-04T12:13:40.432Z,9.50
2019-01-04T12:16:10.735Z,14.23
2019-01-04T12:18:40.396Z,9.23
2019-01-04T12:21:10.183Z,10.87
2019-01-04T12:23:39.300Z,15.60
2019-01-04T12:26:08.662Z,20.33
2019-01-04T12:28:48.586Z,7.93
2019-01-04T12:31:18.329Z,11.03
2019-01-04T12:33:48.533Z,14.93
2019-01-04T12:36:18.264Z,7.57
2019-01-04T12:38:47.759Z,8.83
2019-01-04T12:41:17.481Z,8.93
2019-01-04T12:43:47.894Z,10.33
2019-01-04T12:46:17.905Z,7.80
2019-01-04T12:48:47.824Z,7.20
2019-01-04T12:51:17.587Z,10.23
2019-01-04T12:53:47.466Z,10.53
2019-01-04T12:56:17.096Z,12.00
2019-01-04T12:58:47.508Z,8.70
2019-01-04T13:01:17.323Z,8.90
2019-01-04T13:03:47.001Z,17.10
2019-01-04T13:06:16.771Z,21.47
2019-01-04T13:08:46.206Z,8.47
2019-01-04T13:11:15.829Z,16.93
2019-01-04T13:13:45.445Z,17.93
2019-01-04T13:16:15.309Z,11.73
2019-01-04T13:18:45.465Z,13.90
2019-01-04T13:21:15.057Z,12.77
2019-01-04T13:23:44.804Z,17.53
2019-01-04T13:26:14.522Z,20.20
2019-01-04T13:28:55.269Z,14.80
2019-01-04T13:31:25.115Z,12.30
2019-01-04T13:33:54.784Z,10.77
2019-01-04T13:36:24.540Z,16.87
2019-01-04T13:38:54.303Z,11.77
2019-01-04T13:41:24.038Z,12.60
2019-01-04T13:43:53.735Z,13.10
2019-01-04T13:46:23.538Z,13.90
2019-01-04T13:48:53.392Z,12.03
2019-01-04T13:51:23.089Z,14.10
2019-01-04T13:53:53.002Z,10.30
2019-01-04T13:56:22.735Z,17.90
2019-01-04T13:58:52.408Z,25.40
2019-01-04T14:01:22.221Z,15.30
2019-01-04T14:03:52.075Z,9.93
2019-01-04T14:06:21.869Z,13.07
2019-01-04T14:08:51.706Z,4.77
2019-01-04T14:11:21.419Z,9.63
2019-01-04T14:13:51.121Z,13.67
2019-01-04T14:16:20.873Z,6.97
2019-01-04T14:18:50.380Z,10.50
2019-01-04T14:21:20.236Z,11.80
2019-01-04T14:23:50.112Z,5.30
2019-01-04T14:26:19.871Z,7.60
2019-01-04T14:28:49.516Z,12.90
2019-01-04T14:31:20.297Z,15.97
2019-01-04T14:33:49.994Z,8.30
2019-01-04T14:36:19.873Z,9.70
2019-01-04T14:38:49.724Z,9.70
2019-01-04T14:41:23.297Z,7.43
2019-01-04T14:43:50.648Z,6.17
2019-01-04T14:46:20.516Z,14.20
2019-01-04T14:48:50.230Z,11.60
2019-01-04T14:51:19.994Z,7.30
2019-01-04T14:53:49.879Z,8.97
2019-01-04T14:56:19.581Z,11.30
2019-01-04T14:58:49.420Z,11.80
2019-01-04T15:01:19.320Z,8.50
2019-01-04T15:03:48.955Z,13.00
2019-01-04T15:06:18.673Z,10.63
2019-01-04T15:08:48.413Z,10.87
2019-01-04T15:11:18.068Z,13.97
2019-01-04T15:13:47.704Z,11.73
2019-01-04T15:16:17.554Z,9.17
2019-01-04T15:18:47.217Z,12.50
2019-01-04T15:21:16.844Z,10.70
2019-01-04T15:23:48.871Z,16.07
2019-01-04T15:26:18.756Z,7.17
2019-01-04T15:28:48.397Z,11.00
2019-01-04T15:31:18.305Z,10.87
2019-01-04T15:33:48.034Z,5.93
2019-01-04T15:36:17.657Z,5.40
2019-01-04T15:38:47.523Z,12.13
2019-01-04T15:41:17.314Z,16.43
2019-01-04T15:43:46.936Z,11.80
2019-01-04T15:46:16.855Z,4.63
2019-01-04T15:48:46.511Z,8.53
2019-01-04T15:51:16.263Z,18.43
2019-01-04T15:53:46.150Z,10.83
2019-01-04T15:56:16.017Z,6.20
2019-01-04T15:58:45.840Z,7.90
2019-01-04T16:01:15.722Z,9.67
2019-01-04T16:03:45.233Z,5.70
2019-01-04T16:06:14.914Z,11.93
2019-01-04T16:08:44.813Z,8.17
2019-01-04T16:11:14.599Z,13.63
2019-01-04T16:13:44.212Z,10.40
2019-01-04T16:16:13.984Z,19.40
2019-01-04T16:18:43.530Z,13.67
2019-01-04T16:21:13.268Z,17.23
2019-01-04T16:23:43.144Z,16.17
2019-01-04T16:26:13.040Z,11.80
2019-01-04T16:28:42.865Z,16.53
2019-01-04T16:31:12.730Z,10.83
2019-01-04T16:33:42.395Z,13.80
2019-01-04T16:36:12.084Z,21.20
2019-01-04T16:38:41.957Z,17.20
2019-01-04T16:41:11.656Z,19.73
2019-01-04T16:43:41.072Z,21.10
2019-01-04T16:46:10.699Z,18.40
2019-01-04T16:48:40.679Z,17.97
2019-01-04T16:51:10.276Z,13.60
2019-01-04T16:53:40.095Z,16.03
2019-01-04T16:56:09.825Z,14.73
2019-01-04T16:58:39.602Z,14.23
2019-01-04T17:01:09.431Z,16.03
2019-01-04T17:03:38.789Z,19.30
2019-01-04T17:06:08.620Z,19.93
2019-01-04T17:08:38.456Z,15.37
2019-01-04T17:11:08.069Z,22.97
2019-01-04T17:13:37.910Z,19.57
2019-01-04T17:16:07.625Z,24.93
2019-01-04T17:18:37.257Z,19.70
2019-01-04T17:21:07.071Z,18.67
2019-01-04T17:23:36.742Z,15.53
2019-01-04T17:26:06.506Z,11.47
2019-01-04T17:28:36.853Z,18.20
2019-01-04T17:31:06.567Z,20.70
2019-01-04T17:33:36.403Z,15.83
2019-01-04T17:36:06.175Z,20.13
2019-01-04T17:38:35.801Z,28.37
2019-01-04T17:41:05.462Z,25.17
2019-01-04T17:43:35.184Z,30.73
2019-01-04T17:46:05.139Z,25.83
2019-01-04T17:48:34.805Z,20.73
2019-01-04T17:51:04.342Z,18.57
2019-01-04T17:53:34.031Z,24.03
2019-01-04T17:56:03.192Z,26.13
2019-01-04T17:58:32.553Z,21.43
2019-01-04T18:01:02.223Z,27.40
2019-01-04T18:03:31.712Z,27.20
2019-01-04T18:06:01.012Z,26.40
2019-01-04T18:08:30.424Z,22.17
2019-01-04T18:10:59.602Z,34.97
2019-01-04T18:13:28.943Z,39.73
2019-01-04T18:15:58.392Z,39.50
2019-01-04T18:18:27.660Z,52.67
2019-01-04T18:20:57.082Z,42.47
2019-01-04T18:23:26.559Z,40.73
2019-01-04T18:25:56.073Z,26.00
2019-01-04T18:28:25.503Z,26.57
2019-01-04T18:30:55.164Z,20.10
2019-01-04T18:33:24.533Z,19.13
2019-01-04T18:35:53.772Z,14.87
2019-01-04T18:38:23.253Z,17.97
2019-01-04T18:40:52.582Z,11.77
2019-01-04T18:43:21.692Z,19.60
2019-01-04T18:45:51.376Z,16.50
2019-01-04T18:48:20.524Z,19.23
2019-01-04T18:50:51.053Z,18.10
2019-01-04T18:53:20.622Z,15.03
2019-01-04T18:55:49.712Z,33.87
2019-01-04T18:58:19.462Z,17.53
2019-01-04T19:00:48.843Z,14.60
2019-01-04T19:03:17.984Z,18.77
2019-01-04T19:05:47.023Z,20.13
2019-01-04T19:08:16.456Z,25.27
2019-01-04T19:10:45.703Z,21.73
2019-01-04T19:13:15.022Z,17.47
2019-01-04T19:15:44.414Z,22.40
2019-01-04T19:18:13.643Z,14.97
2019-01-04T19:20:42.854Z,12.10
2019-01-04T19:23:12.042Z,12.40
2019-01-04T19:25:41.472Z,12.23
2019-01-04T19:28:10.732Z,16.83
2019-01-04T19:30:40.322Z,12.03
2019-01-04T19:33:09.912Z,21.57
2019-01-04T19:35:39.452Z,59.23
2019-01-04T19:38:08.896Z,40.60
2019-01-04T19:40:38.391Z,32.57
2019-01-04T19:43:07.734Z,18.40
2019-01-04T19:45:37.503Z,17.27
2019-01-04T19:48:06.837Z,13.00
2019-01-04T19:50:36.313Z,12.80
2019-01-04T19:53:05.787Z,19.73
2019-01-04T19:55:34.903Z,16.00
2019-01-04T19:58:04.117Z,12.07
2019-01-04T20:00:33.145Z,15.97
2019-01-04T20:03:02.076Z,11.97
2019-01-04T20:06:13.721Z,14.53
2019-01-04T20:09:02.548Z,21.03
2019-01-04T20:12:18.105Z,25.47
2019-01-04T20:15:00.944Z,25.63
2019-01-04T20:17:32.346Z,20.83
2019-01-04T20:20:05.892Z,19.40
2019-01-04T20:22:43.076Z,32.10
2019-01-04T20:25:30.003Z,31.77
2019-01-04T20:28:03.583Z,27.60
2019-01-04T20:30:37.184Z,28.93
2019-01-04T20:33:23.946Z,21.20
2019-01-04T20:36:12.293Z,18.37
2019-01-04T20:38:52.448Z,20.83
2019-01-04T20:41:39.434Z,17.37
2019-01-04T20:44:10.444Z,29.53
2019-01-04T20:46:50.295Z,18.37
2019-01-04T20:49:30.784Z,24.77
2019-01-04T20:52:17.534Z,23.37
2019-01-04T20:55:04.594Z,25.80
2019-01-04T20:57:44.224Z,38.67
2019-01-04T21:00:14.905Z,31.10
2019-01-04T21:03:02.323Z,29.93
2019-01-04T21:05:36.595Z,33.23
2019-01-04T21:08:10.355Z,134.30
2019-01-04T21:10:41.254Z,160.30
2019-01-04T21:13:28.284Z,56.57
2019-01-04T21:16:08.504Z,85.17
2019-01-04T21:18:48.237Z,56.47
2019-01-04T21:21:21.903Z,57.80
2019-01-04T21:24:02.058Z,60.07
2019-01-04T21:26:33.213Z,46.77
2019-01-04T21:29:14.275Z,35.93
2019-01-04T21:31:50.914Z,40.00
2019-01-04T21:34:24.384Z,24.13
2019-01-04T21:36:59.103Z,24.73
2019-01-04T21:39:46.303Z,22.20
2019-01-04T21:42:17.375Z,19.60
2019-01-04T21:45:04.004Z,21.70
2019-01-04T21:47:51.624Z,17.77
2019-01-04T21:50:34.865Z,22.53
2019-01-04T21:53:11.037Z,16.77
2019-01-04T21:55:51.824Z,13.97
2019-01-04T21:58:32.510Z,17.47
2019-01-04T22:01:03.748Z,18.50
2019-01-04T22:03:51.432Z,25.07
2019-01-04T22:06:28.972Z,22.23
2019-01-04T22:09:00.171Z,32.67
2019-01-04T22:11:48.267Z,20.00
2019-01-04T22:14:19.144Z,20.80
2019-01-04T22:17:08.516Z,39.00
2019-01-04T22:19:56.531Z,54.67
2019-01-04T22:22:39.658Z,59.60
2019-01-04T22:25:26.843Z,35.43
2019-01-04T22:28:04.423Z,29.03
2019-01-04T22:30:52.417Z,25.87
2019-01-04T22:33:30.765Z,29.47
2019-01-04T22:36:01.794Z,26.63
2019-01-04T22:38:42.205Z,23.80
2019-01-04T22:41:26.186Z,21.90
2019-01-04T22:43:57.555Z,29.43
2019-01-04T22:46:45.751Z,21.50
2019-01-04T22:49:34.254Z,19.33
2019-01-04T22:52:14.553Z,19.53
2019-01-04T22:55:02.672Z,20.90
2019-01-04T22:57:50.682Z,25.93
2019-01-04T23:00:46.010Z,25.40
2019-01-04T23:03:34.351Z,25.47
2019-01-04T23:06:21.002Z,17.60
2019-01-04T23:08:58.181Z,16.40
2019-01-04T23:11:29.430Z,25.53
2019-01-04T23:14:17.643Z,24.10
2019-01-04T23:16:48.785Z,19.03
2019-01-04T23:19:37.020Z,20.77
2019-01-04T23:22:27.795Z,16.33
2019-01-04T23:25:05.273Z,10.37
2019-01-04T23:27:54.179Z,17.40
2019-01-04T23:30:25.548Z,20.60
2019-01-04T23:32:56.722Z,16.87
2019-01-04T23:35:27.942Z,18.60
2019-01-04T23:38:16.279Z,50.83
2019-01-04T23:40:56.451Z,25.30
2019-01-04T23:43:33.833Z,41.57
2019-01-04T23:46:20.484Z,82.23
2019-01-04T23:48:51.797Z,61.47
2019-01-04T23:51:30.009Z,47.67
2019-01-04T23:54:07.993Z,23.27
2019-01-04T23:56:56.558Z,34.53
2019-01-04T23:59:34.421Z,18.90
